sensor_id;sensor_type;location;lat;lon;timestamp;temperature;humidity
68578;SHT31;61668;45.388;11.784;2022-12-22T00:01:39;7.39;77.70
68578;SHT31;61668;45.388;11.784;2022-12-22T00:04:24;7.39;77.79
68578;SHT31;61668;45.388;11.784;2022-12-22T00:07:08;7.38;77.87
68578;SHT31;61668;45.388;11.784;2022-12-22T00:09:52;7.38;77.91
68578;SHT31;61668;45.388;11.784;2022-12-22T00:12:36;7.38;77.97
68578;SHT31;61668;45.388;11.784;2022-12-22T00:15:21;7.39;77.97
68578;SHT31;61668;45.388;11.784;2022-12-22T00:18:07;7.40;78.07
68578;SHT31;61668;45.388;11.784;2022-12-22T00:20:57;7.41;78.14
68578;SHT31;61668;45.388;11.784;2022-12-22T00:23:42;7.42;78.20
68578;SHT31;61668;45.388;11.784;2022-12-22T00:26:27;7.43;78.20
68578;SHT31;61668;45.388;11.784;2022-12-22T00:29:15;7.45;78.20
68578;SHT31;61668;45.388;11.784;2022-12-22T00:32:00;7.47;78.26
68578;SHT31;61668;45.388;11.784;2022-12-22T00:34:46;7.46;78.22
68578;SHT31;61668;45.388;11.784;2022-12-22T00:37:32;7.44;78.27
68578;SHT31;61668;45.388;11.784;2022-12-22T00:40:21;7.43;78.30
68578;SHT31;61668;45.388;11.784;2022-12-22T00:43:09;7.42;78.38
68578;SHT31;61668;45.388;11.784;2022-12-22T00:45:53;7.41;78.40
68578;SHT31;61668;45.388;11.784;2022-12-22T00:48:38;7.39;78.43
68578;SHT31;61668;45.388;11.784;2022-12-22T00:51:24;7.38;78.42
68578;SHT31;61668;45.388;11.784;2022-12-22T00:54:09;7.37;78.39
68578;SHT31;61668;45.388;11.784;2022-12-22T00:56:56;7.37;78.45
68578;SHT31;61668;45.388;11.784;2022-12-22T00:59:43;7.39;78.50
68578;SHT31;61668;45.388;11.784;2022-12-22T01:02:27;7.41;78.44
68578;SHT31;61668;45.388;11.784;2022-12-22T01:05:12;7.44;78.42
68578;SHT31;61668;45.388;11.784;2022-12-22T01:07:56;7.46;78.31
68578;SHT31;61668;45.388;11.784;2022-12-22T01:10:40;7.46;78.21
68578;SHT31;61668;45.388;11.784;2022-12-22T01:13:26;7.47;78.20
68578;SHT31;61668;45.388;11.784;2022-12-22T01:16:11;7.48;78.24
68578;SHT31;61668;45.388;11.784;2022-12-22T01:18:56;7.51;78.26
68578;SHT31;61668;45.388;11.784;2022-12-22T01:21:40;7.54;78.19
68578;SHT31;61668;45.388;11.784;2022-12-22T01:24:25;7.55;78.17
68578;SHT31;61668;45.388;11.784;2022-12-22T01:27:11;7.57;78.10
68578;SHT31;61668;45.388;11.784;2022-12-22T01:29:56;7.58;78.05
68578;SHT31;61668;45.388;11.784;2022-12-22T01:32:41;7.60;78.05
68578;SHT31;61668;45.388;11.784;2022-12-22T01:35:27;7.60;78.03
68578;SHT31;61668;45.388;11.784;2022-12-22T01:38:14;7.61;78.13
68578;SHT31;61668;45.388;11.784;2022-12-22T01:40:59;7.63;78.16
68578;SHT31;61668;45.388;11.784;2022-12-22T01:43:46;7.65;78.17
68578;SHT31;61668;45.388;11.784;2022-12-22T01:46:32;7.68;78.08
68578;SHT31;61668;45.388;11.784;2022-12-22T01:52:04;7.72;78.05
68578;SHT31;61668;45.388;11.784;2022-12-22T01:54:49;7.76;78.09
68578;SHT31;61668;45.388;11.784;2022-12-22T01:57:35;7.82;78.01
68578;SHT31;61668;45.388;11.784;2022-12-22T02:00:20;7.88;77.92
68578;SHT31;61668;45.388;11.784;2022-12-22T02:03:18;7.91;77.84
68578;SHT31;61668;45.388;11.784;2022-12-22T02:12:28;7.92;77.60
68578;SHT31;61668;45.388;11.784;2022-12-22T02:15:27;7.90;77.74
68578;SHT31;61668;45.388;11.784;2022-12-22T02:25:16;7.95;77.80
68578;SHT31;61668;45.388;11.784;2022-12-22T02:28:07;7.96;77.89
68578;SHT31;61668;45.388;11.784;2022-12-22T02:30:53;7.99;77.95
68578;SHT31;61668;45.388;11.784;2022-12-22T02:33:38;8.00;77.93
68578;SHT31;61668;45.388;11.784;2022-12-22T02:40:16;8.01;78.12
68578;SHT31;61668;45.388;11.784;2022-12-22T02:46:50;7.99;78.44
68578;SHT31;61668;45.388;11.784;2022-12-22T02:52:37;7.99;78.40
68578;SHT31;61668;45.388;11.784;2022-12-22T02:55:25;7.99;78.41
68578;SHT31;61668;45.388;11.784;2022-12-22T02:58:11;7.98;78.27
68578;SHT31;61668;45.388;11.784;2022-12-22T03:00:57;7.98;78.19
68578;SHT31;61668;45.388;11.784;2022-12-22T03:03:42;8.00;78.20
68578;SHT31;61668;45.388;11.784;2022-12-22T03:06:26;8.04;78.20
68578;SHT31;61668;45.388;11.784;2022-12-22T03:09:11;8.08;78.06
68578;SHT31;61668;45.388;11.784;2022-12-22T03:11:55;8.11;78.00
68578;SHT31;61668;45.388;11.784;2022-12-22T03:14:39;8.14;77.91
68578;SHT31;61668;45.388;11.784;2022-12-22T03:17:24;8.16;77.86
68578;SHT31;61668;45.388;11.784;2022-12-22T03:20:08;8.16;77.80
68578;SHT31;61668;45.388;11.784;2022-12-22T03:22:53;8.13;77.77
68578;SHT31;61668;45.388;11.784;2022-12-22T03:25:37;8.12;77.82
68578;SHT31;61668;45.388;11.784;2022-12-22T03:28:17;8.09;77.89
68578;SHT31;61668;45.388;11.784;2022-12-22T03:30:51;8.07;77.84
68578;SHT31;61668;45.388;11.784;2022-12-22T03:33:22;8.06;77.81
68578;SHT31;61668;45.388;11.784;2022-12-22T03:35:48;8.05;77.77
68578;SHT31;61668;45.388;11.784;2022-12-22T03:38:14;8.03;77.87
68578;SHT31;61668;45.388;11.784;2022-12-22T03:40:39;8.02;78.00
68578;SHT31;61668;45.388;11.784;2022-12-22T03:43:05;8.00;78.10
68578;SHT31;61668;45.388;11.784;2022-12-22T03:45:55;7.97;78.24
68578;SHT31;61668;45.388;11.784;2022-12-22T03:48:33;7.96;78.30
68578;SHT31;61668;45.388;11.784;2022-12-22T03:50:59;7.94;78.37
68578;SHT31;61668;45.388;11.784;2022-12-22T03:53:25;7.97;78.42
68578;SHT31;61668;45.388;11.784;2022-12-22T03:55:50;7.99;78.42
68578;SHT31;61668;45.388;11.784;2022-12-22T03:58:16;8.02;78.36
68578;SHT31;61668;45.388;11.784;2022-12-22T04:00:41;8.05;78.24
68578;SHT31;61668;45.388;11.784;2022-12-22T04:03:07;8.07;78.13
68578;SHT31;61668;45.388;11.784;2022-12-22T04:05:32;8.10;78.16
68578;SHT31;61668;45.388;11.784;2022-12-22T04:07:58;8.14;78.18
68578;SHT31;61668;45.388;11.784;2022-12-22T04:10:23;8.16;78.02
68578;SHT31;61668;45.388;11.784;2022-12-22T04:13:08;8.16;78.06
68578;SHT31;61668;45.388;11.784;2022-12-22T04:15:33;8.15;78.03
68578;SHT31;61668;45.388;11.784;2022-12-22T04:17:59;8.14;78.04
68578;SHT31;61668;45.388;11.784;2022-12-22T04:20:25;8.10;78.10
68578;SHT31;61668;45.388;11.784;2022-12-22T04:22:52;8.08;78.09
68578;SHT31;61668;45.388;11.784;2022-12-22T04:25:19;8.09;78.10
68578;SHT31;61668;45.388;11.784;2022-12-22T04:27:45;8.12;78.10
68578;SHT31;61668;45.388;11.784;2022-12-22T04:30:11;8.13;78.16
68578;SHT31;61668;45.388;11.784;2022-12-22T04:32:37;8.16;78.26
68578;SHT31;61668;45.388;11.784;2022-12-22T04:35:03;8.16;78.20
68578;SHT31;61668;45.388;11.784;2022-12-22T04:37:30;8.14;78.20
68578;SHT31;61668;45.388;11.784;2022-12-22T04:39:55;8.12;78.24
68578;SHT31;61668;45.388;11.784;2022-12-22T04:42:21;8.09;78.29
68578;SHT31;61668;45.388;11.784;2022-12-22T04:44:47;8.05;78.37
68578;SHT31;61668;45.388;11.784;2022-12-22T04:47:13;8.03;78.40
68578;SHT31;61668;45.388;11.784;2022-12-22T04:49:38;8.05;78.48
68578;SHT31;61668;45.388;11.784;2022-12-22T04:52:04;8.04;78.48
68578;SHT31;61668;45.388;11.784;2022-12-22T04:54:30;8.02;78.50
68578;SHT31;61668;45.388;11.784;2022-12-22T04:56:55;8.01;78.59
68578;SHT31;61668;45.388;11.784;2022-12-22T04:59:21;8.02;78.55
68578;SHT31;61668;45.388;11.784;2022-12-22T05:01:46;7.99;78.60
68578;SHT31;61668;45.388;11.784;2022-12-22T05:04:12;7.99;78.60
68578;SHT31;61668;45.388;11.784;2022-12-22T05:06:38;8.01;78.66
68578;SHT31;61668;45.388;11.784;2022-12-22T05:09:03;8.04;78.69
68578;SHT31;61668;45.388;11.784;2022-12-22T05:11:29;8.09;78.70
68578;SHT31;61668;45.388;11.784;2022-12-22T05:13:54;8.11;78.64
68578;SHT31;61668;45.388;11.784;2022-12-22T05:16:20;8.12;78.69
68578;SHT31;61668;45.388;11.784;2022-12-22T05:18:45;8.12;78.69
68578;SHT31;61668;45.388;11.784;2022-12-22T05:21:12;8.12;78.68
68578;SHT31;61668;45.388;11.784;2022-12-22T05:23:41;8.11;78.70
68578;SHT31;61668;45.388;11.784;2022-12-22T05:26:08;8.12;78.69
68578;SHT31;61668;45.388;11.784;2022-12-22T05:28:35;8.13;78.64
68578;SHT31;61668;45.388;11.784;2022-12-22T05:31:04;8.14;78.60
68578;SHT31;61668;45.388;11.784;2022-12-22T05:33:33;8.15;78.60
68578;SHT31;61668;45.388;11.784;2022-12-22T05:36:00;8.15;78.59
68578;SHT31;61668;45.388;11.784;2022-12-22T05:38:25;8.16;78.61
68578;SHT31;61668;45.388;11.784;2022-12-22T05:40:52;8.15;78.66
68578;SHT31;61668;45.388;11.784;2022-12-22T05:43:18;8.14;78.74
68578;SHT31;61668;45.388;11.784;2022-12-22T05:45:44;8.10;78.80
68578;SHT31;61668;45.388;11.784;2022-12-22T05:48:11;8.07;78.89
68578;SHT31;61668;45.388;11.784;2022-12-22T05:50:37;8.08;79.00
68578;SHT31;61668;45.388;11.784;2022-12-22T05:53:04;8.09;79.00
68578;SHT31;61668;45.388;11.784;2022-12-22T05:55:33;8.11;79.10
68578;SHT31;61668;45.388;11.784;2022-12-22T05:57:59;8.14;79.03
68578;SHT31;61668;45.388;11.784;2022-12-22T06:00:26;8.15;79.10
68578;SHT31;61668;45.388;11.784;2022-12-22T06:02:54;8.17;79.11
68578;SHT31;61668;45.388;11.784;2022-12-22T06:05:20;8.16;79.13
68578;SHT31;61668;45.388;11.784;2022-12-22T06:07:46;8.17;79.12
68578;SHT31;61668;45.388;11.784;2022-12-22T06:10:12;8.17;79.17
68578;SHT31;61668;45.388;11.784;2022-12-22T06:12:38;8.18;79.11
68578;SHT31;61668;45.388;11.784;2022-12-22T06:15:06;8.20;79.01
68578;SHT31;61668;45.388;11.784;2022-12-22T06:17:34;8.23;78.99
68578;SHT31;61668;45.388;11.784;2022-12-22T06:19:59;8.21;78.99
68578;SHT31;61668;45.388;11.784;2022-12-22T06:22:25;8.18;78.97
68578;SHT31;61668;45.388;11.784;2022-12-22T06:24:50;8.16;78.96
68578;SHT31;61668;45.388;11.784;2022-12-22T06:27:16;8.14;79.03
68578;SHT31;61668;45.388;11.784;2022-12-22T06:29:41;8.14;79.11
68578;SHT31;61668;45.388;11.784;2022-12-22T06:32:07;8.14;79.12
68578;SHT31;61668;45.388;11.784;2022-12-22T06:34:32;8.14;79.18
68578;SHT31;61668;45.388;11.784;2022-12-22T06:36:58;8.18;79.20
68578;SHT31;61668;45.388;11.784;2022-12-22T06:39:23;8.19;79.16
68578;SHT31;61668;45.388;11.784;2022-12-22T06:41:49;8.18;79.18
68578;SHT31;61668;45.388;11.784;2022-12-22T06:44:33;8.14;79.23
68578;SHT31;61668;45.388;11.784;2022-12-22T06:46:59;8.07;79.33
68578;SHT31;61668;45.388;11.784;2022-12-22T06:49:24;8.01;79.40
68578;SHT31;61668;45.388;11.784;2022-12-22T06:51:50;7.96;79.54
68578;SHT31;61668;45.388;11.784;2022-12-22T06:54:16;7.94;79.63
68578;SHT31;61668;45.388;11.784;2022-12-22T06:56:41;7.92;79.70
68578;SHT31;61668;45.388;11.784;2022-12-22T06:59:07;7.91;79.79
68578;SHT31;61668;45.388;11.784;2022-12-22T07:01:33;7.89;79.87
68578;SHT31;61668;45.388;11.784;2022-12-22T07:03:58;7.89;79.95
68578;SHT31;61668;45.388;11.784;2022-12-22T07:06:24;7.90;79.99
68578;SHT31;61668;45.388;11.784;2022-12-22T07:08:49;7.90;80.02
68578;SHT31;61668;45.388;11.784;2022-12-22T07:11:15;7.91;80.01
68578;SHT31;61668;45.388;11.784;2022-12-22T07:13:41;7.91;80.03
68578;SHT31;61668;45.388;11.784;2022-12-22T07:16:08;7.91;80.00
68578;SHT31;61668;45.388;11.784;2022-12-22T07:18:35;7.92;80.04
68578;SHT31;61668;45.388;11.784;2022-12-22T07:21:05;7.94;80.07
68578;SHT31;61668;45.388;11.784;2022-12-22T07:23:34;7.97;80.08
68578;SHT31;61668;45.388;11.784;2022-12-22T07:26:00;8.01;80.01
68578;SHT31;61668;45.388;11.784;2022-12-22T07:28:26;8.02;79.91
68578;SHT31;61668;45.388;11.784;2022-12-22T07:30:52;8.05;79.90
68578;SHT31;61668;45.388;11.784;2022-12-22T07:33:18;8.07;79.91
68578;SHT31;61668;45.388;11.784;2022-12-22T07:35:44;8.07;79.92
68578;SHT31;61668;45.388;11.784;2022-12-22T07:38:10;8.06;80.04
68578;SHT31;61668;45.388;11.784;2022-12-22T07:40:36;8.07;80.18
68578;SHT31;61668;45.388;11.784;2022-12-22T07:43:02;8.10;80.20
68578;SHT31;61668;45.388;11.784;2022-12-22T07:45:28;8.14;80.16
68578;SHT31;61668;45.388;11.784;2022-12-22T07:48:00;8.18;80.06
68578;SHT31;61668;45.388;11.784;2022-12-22T07:50:47;8.20;79.82
68578;SHT31;61668;45.388;11.784;2022-12-22T07:53:12;8.21;79.80
68578;SHT31;61668;45.388;11.784;2022-12-22T07:55:38;8.21;79.79
68578;SHT31;61668;45.388;11.784;2022-12-22T07:58:03;8.22;79.80
68578;SHT31;61668;45.388;11.784;2022-12-22T08:00:29;8.24;79.83
68578;SHT31;61668;45.388;11.784;2022-12-22T08:02:55;8.27;79.75
68578;SHT31;61668;45.388;11.784;2022-12-22T08:05:22;8.27;79.69
68578;SHT31;61668;45.388;11.784;2022-12-22T08:07:50;8.28;79.63
68578;SHT31;61668;45.388;11.784;2022-12-22T08:10:17;8.29;79.66
68578;SHT31;61668;45.388;11.784;2022-12-22T08:12:44;8.30;79.60
68578;SHT31;61668;45.388;11.784;2022-12-22T08:15:10;8.31;79.48
68578;SHT31;61668;45.388;11.784;2022-12-22T08:17:36;8.32;79.41
68578;SHT31;61668;45.388;11.784;2022-12-22T08:20:03;8.34;79.40
68578;SHT31;61668;45.388;11.784;2022-12-22T08:22:30;8.34;79.36
68578;SHT31;61668;45.388;11.784;2022-12-22T08:24:56;8.34;79.30
68578;SHT31;61668;45.388;11.784;2022-12-22T08:27:26;8.36;79.33
68578;SHT31;61668;45.388;11.784;2022-12-22T08:30:02;8.38;79.40
68578;SHT31;61668;45.388;11.784;2022-12-22T08:32:28;8.42;79.27
68578;SHT31;61668;45.388;11.784;2022-12-22T08:34:54;8.48;79.21
68578;SHT31;61668;45.388;11.784;2022-12-22T08:37:21;8.51;79.24
68578;SHT31;61668;45.388;11.784;2022-12-22T08:39:51;8.54;79.25
68578;SHT31;61668;45.388;11.784;2022-12-22T08:42:22;8.58;79.17
68578;SHT31;61668;45.388;11.784;2022-12-22T08:44:49;8.61;79.10
68578;SHT31;61668;45.388;11.784;2022-12-22T08:47:17;8.65;79.05
68578;SHT31;61668;45.388;11.784;2022-12-22T08:49:45;8.68;78.90
68578;SHT31;61668;45.388;11.784;2022-12-22T08:52:11;8.71;78.80
68578;SHT31;61668;45.388;11.784;2022-12-22T08:54:36;8.74;78.81
68578;SHT31;61668;45.388;11.784;2022-12-22T08:57:02;8.83;78.79
68578;SHT31;61668;45.388;11.784;2022-12-22T08:59:27;8.87;78.70
68578;SHT31;61668;45.388;11.784;2022-12-22T09:01:53;8.91;78.70
68578;SHT31;61668;45.388;11.784;2022-12-22T09:04:19;8.96;78.73
68578;SHT31;61668;45.388;11.784;2022-12-22T09:06:46;9.02;78.65
68578;SHT31;61668;45.388;11.784;2022-12-22T09:09:13;9.06;78.34
68578;SHT31;61668;45.388;11.784;2022-12-22T09:11:40;9.10;78.23
68578;SHT31;61668;45.388;11.784;2022-12-22T09:14:06;9.18;78.28
68578;SHT31;61668;45.388;11.784;2022-12-22T09:16:34;9.27;78.12
68578;SHT31;61668;45.388;11.784;2022-12-22T09:19:00;9.34;78.00
68578;SHT31;61668;45.388;11.784;2022-12-22T09:21:27;9.41;77.73
68578;SHT31;61668;45.388;11.784;2022-12-22T09:23:54;9.48;77.52
68578;SHT31;61668;45.388;11.784;2022-12-22T09:26:21;9.55;77.26
68578;SHT31;61668;45.388;11.784;2022-12-22T09:28:49;9.57;77.07
68578;SHT31;61668;45.388;11.784;2022-12-22T09:31:15;9.60;76.93
68578;SHT31;61668;45.388;11.784;2022-12-22T09:33:43;9.59;76.78
68578;SHT31;61668;45.388;11.784;2022-12-22T09:36:10;9.61;76.73
68578;SHT31;61668;45.388;11.784;2022-12-22T09:38:39;9.66;76.70
68578;SHT31;61668;45.388;11.784;2022-12-22T09:41:09;9.73;76.70
68578;SHT31;61668;45.388;11.784;2022-12-22T09:44:11;9.80;76.62
68578;SHT31;61668;45.388;11.784;2022-12-22T09:46:51;9.85;76.40
68578;SHT31;61668;45.388;11.784;2022-12-22T09:49:20;9.86;76.19
68578;SHT31;61668;45.388;11.784;2022-12-22T09:51:48;9.92;76.05
68578;SHT31;61668;45.388;11.784;2022-12-22T09:54:21;9.95;75.75
68578;SHT31;61668;45.388;11.784;2022-12-22T09:56:48;9.99;75.49
68578;SHT31;61668;45.388;11.784;2022-12-22T09:59:15;10.02;75.43
68578;SHT31;61668;45.388;11.784;2022-12-22T10:07:52;10.10;75.20
68578;SHT31;61668;45.388;11.784;2022-12-22T10:10:26;10.09;75.12
68578;SHT31;61668;45.388;11.784;2022-12-22T10:12:57;10.09;75.10
68578;SHT31;61668;45.388;11.784;2022-12-22T10:15:25;10.08;75.00
68578;SHT31;61668;45.388;11.784;2022-12-22T10:17:53;10.10;74.99
68578;SHT31;61668;45.388;11.784;2022-12-22T10:20:38;10.14;74.86
68578;SHT31;61668;45.388;11.784;2022-12-22T10:28:28;10.22;74.55
68578;SHT31;61668;45.388;11.784;2022-12-22T10:33:41;10.25;74.32
68578;SHT31;61668;45.388;11.784;2022-12-22T10:36:08;10.20;74.21
68578;SHT31;61668;45.388;11.784;2022-12-22T10:41:07;10.08;74.00
68578;SHT31;61668;45.388;11.784;2022-12-22T10:43:50;10.05;74.16
68578;SHT31;61668;45.388;11.784;2022-12-22T10:46:19;10.08;74.37
68578;SHT31;61668;45.388;11.784;2022-12-22T10:52:17;10.17;73.83
68578;SHT31;61668;45.388;11.784;2022-12-22T10:54:47;10.20;73.81
68578;SHT31;61668;45.388;11.784;2022-12-22T11:02:22;10.29;73.88
68578;SHT31;61668;45.388;11.784;2022-12-22T11:05:02;10.37;73.81
68578;SHT31;61668;45.388;11.784;2022-12-22T11:07:35;10.38;73.59
68578;SHT31;61668;45.388;11.784;2022-12-22T11:10:10;10.41;73.60
68578;SHT31;61668;45.388;11.784;2022-12-22T11:12:53;10.43;73.50
68578;SHT31;61668;45.388;11.784;2022-12-22T11:30:02;10.44;73.07
68578;SHT31;61668;45.388;11.784;2022-12-22T11:32:47;10.44;72.97
68578;SHT31;61668;45.388;11.784;2022-12-22T11:39:40;10.36;72.79
68578;SHT31;61668;45.388;11.784;2022-12-22T11:55:24;10.57;72.65
68578;SHT31;61668;45.388;11.784;2022-12-22T12:00:41;10.54;72.58
68578;SHT31;61668;45.388;11.784;2022-12-22T12:04:14;10.54;72.63
68578;SHT31;61668;45.388;11.784;2022-12-22T12:06:57;10.57;72.68
68578;SHT31;61668;45.388;11.784;2022-12-22T12:20:56;10.56;72.66
68578;SHT31;61668;45.388;11.784;2022-12-22T12:26:51;10.53;72.45
68578;SHT31;61668;45.388;11.784;2022-12-22T12:29:46;10.49;72.58
68578;SHT31;61668;45.388;11.784;2022-12-22T12:32:29;10.49;72.68
68578;SHT31;61668;45.388;11.784;2022-12-22T12:35:13;10.47;72.65
68578;SHT31;61668;45.388;11.784;2022-12-22T12:38:10;10.41;72.75
68578;SHT31;61668;45.388;11.784;2022-12-22T12:43:38;10.35;72.85
68578;SHT31;61668;45.388;11.784;2022-12-22T12:46:42;10.33;72.84
68578;SHT31;61668;45.388;11.784;2022-12-22T12:52:09;10.35;72.95
68578;SHT31;61668;45.388;11.784;2022-12-22T12:57:21;10.31;72.79
68578;SHT31;61668;45.388;11.784;2022-12-22T12:59:55;10.25;72.73
68578;SHT31;61668;45.388;11.784;2022-12-22T13:10:39;10.05;72.80
68578;SHT31;61668;45.388;11.784;2022-12-22T13:13:09;10.01;72.93
68578;SHT31;61668;45.388;11.784;2022-12-22T13:21:01;9.94;73.30
68578;SHT31;61668;45.388;11.784;2022-12-22T13:23:33;9.90;73.31
68578;SHT31;61668;45.388;11.784;2022-12-22T13:26:17;9.85;73.43
68578;SHT31;61668;45.388;11.784;2022-12-22T13:29:00;9.81;73.59
68578;SHT31;61668;45.388;11.784;2022-12-22T13:31:40;9.76;73.65
68578;SHT31;61668;45.388;11.784;2022-12-22T13:36:50;9.70;73.97
68578;SHT31;61668;45.388;11.784;2022-12-22T13:39:17;9.69;74.10
68578;SHT31;61668;45.388;11.784;2022-12-22T13:41:44;9.69;74.15
68578;SHT31;61668;45.388;11.784;2022-12-22T13:44:16;9.71;74.26
68578;SHT31;61668;45.388;11.784;2022-12-22T13:46:46;9.72;74.35
68578;SHT31;61668;45.388;11.784;2022-12-22T13:49:14;9.73;74.46
68578;SHT31;61668;45.388;11.784;2022-12-22T13:51:42;9.72;74.57
68578;SHT31;61668;45.388;11.784;2022-12-22T13:54:12;9.72;74.70
68578;SHT31;61668;45.388;11.784;2022-12-22T13:56:50;9.73;74.88
68578;SHT31;61668;45.388;11.784;2022-12-22T13:59:37;9.74;74.94
68578;SHT31;61668;45.388;11.784;2022-12-22T14:04:40;9.76;74.99
68578;SHT31;61668;45.388;11.784;2022-12-22T14:07:11;9.76;75.02
68578;SHT31;61668;45.388;11.784;2022-12-22T14:09:47;9.76;75.03
68578;SHT31;61668;45.388;11.784;2022-12-22T14:14:49;9.74;75.10
68578;SHT31;61668;45.388;11.784;2022-12-22T14:17:22;9.74;75.16
68578;SHT31;61668;45.388;11.784;2022-12-22T14:19:52;9.75;75.20
68578;SHT31;61668;45.388;11.784;2022-12-22T14:22:21;9.74;75.29
68578;SHT31;61668;45.388;11.784;2022-12-22T14:24:58;9.74;75.28
68578;SHT31;61668;45.388;11.784;2022-12-22T14:27:47;9.74;75.36
68578;SHT31;61668;45.388;11.784;2022-12-22T14:30:18;9.72;75.45
68578;SHT31;61668;45.388;11.784;2022-12-22T14:32:50;9.71;75.57
68578;SHT31;61668;45.388;11.784;2022-12-22T14:37:55;9.68;75.70
68578;SHT31;61668;45.388;11.784;2022-12-22T14:40:41;9.67;75.64
68578;SHT31;61668;45.388;11.784;2022-12-22T14:45:42;9.60;75.69
68578;SHT31;61668;45.388;11.784;2022-12-22T14:48:15;9.57;75.76
68578;SHT31;61668;45.388;11.784;2022-12-22T14:50:49;9.55;75.80
68578;SHT31;61668;45.388;11.784;2022-12-22T14:53:21;9.54;75.95
68578;SHT31;61668;45.388;11.784;2022-12-22T14:55:51;9.50;76.07
68578;SHT31;61668;45.388;11.784;2022-12-22T14:58:20;9.46;76.14
68578;SHT31;61668;45.388;11.784;2022-12-22T15:01:12;9.43;76.25
68578;SHT31;61668;45.388;11.784;2022-12-22T15:06:43;9.36;76.53
68578;SHT31;61668;45.388;11.784;2022-12-22T15:14:40;9.28;77.00
68578;SHT31;61668;45.388;11.784;2022-12-22T15:17:00;9.26;77.16
68578;SHT31;61668;45.388;11.784;2022-12-22T15:19:28;9.24;77.23
68578;SHT31;61668;45.388;11.784;2022-12-22T15:21:58;9.23;77.45
68578;SHT31;61668;45.388;11.784;2022-12-22T15:24:24;9.22;77.66
68578;SHT31;61668;45.388;11.784;2022-12-22T15:26:50;9.19;77.83
68578;SHT31;61668;45.388;11.784;2022-12-22T15:29:16;9.19;77.99
68578;SHT31;61668;45.388;11.784;2022-12-22T15:31:42;9.18;78.10
68578;SHT31;61668;45.388;11.784;2022-12-22T15:34:30;9.17;78.21
68578;SHT31;61668;45.388;11.784;2022-12-22T15:36:55;9.16;78.28
68578;SHT31;61668;45.388;11.784;2022-12-22T15:39:21;9.17;78.35
68578;SHT31;61668;45.388;11.784;2022-12-22T15:41:48;9.17;78.40
68578;SHT31;61668;45.388;11.784;2022-12-22T15:44:14;9.17;78.46
68578;SHT31;61668;45.388;11.784;2022-12-22T15:46:41;9.16;78.56
68578;SHT31;61668;45.388;11.784;2022-12-22T15:49:18;9.15;78.69
68578;SHT31;61668;45.388;11.784;2022-12-22T15:51:48;9.13;78.78
68578;SHT31;61668;45.388;11.784;2022-12-22T15:54:24;9.13;78.78
68578;SHT31;61668;45.388;11.784;2022-12-22T15:56:52;9.12;78.84
68578;SHT31;61668;45.388;11.784;2022-12-22T15:59:25;9.11;78.90
68578;SHT31;61668;45.388;11.784;2022-12-22T16:01:52;9.10;78.97
68578;SHT31;61668;45.388;11.784;2022-12-22T16:04:21;9.10;79.07
68578;SHT31;61668;45.388;11.784;2022-12-22T16:06:48;9.09;79.09
68578;SHT31;61668;45.388;11.784;2022-12-22T16:09:21;9.09;79.11
68578;SHT31;61668;45.388;11.784;2022-12-22T16:11:51;9.08;79.21
68578;SHT31;61668;45.388;11.784;2022-12-22T16:14:17;9.10;79.31
68578;SHT31;61668;45.388;11.784;2022-12-22T16:16:45;9.09;79.34
68578;SHT31;61668;45.388;11.784;2022-12-22T16:19:13;9.10;79.40
68578;SHT31;61668;45.388;11.784;2022-12-22T16:21:41;9.09;79.50
68578;SHT31;61668;45.388;11.784;2022-12-22T16:26:57;9.06;79.39
68578;SHT31;61668;45.388;11.784;2022-12-22T16:29:23;9.06;79.31
68578;SHT31;61668;45.388;11.784;2022-12-22T16:31:49;9.05;79.30
68578;SHT31;61668;45.388;11.784;2022-12-22T16:34:15;9.03;79.31
68578;SHT31;61668;45.388;11.784;2022-12-22T16:36:41;9.02;79.32
68578;SHT31;61668;45.388;11.784;2022-12-22T16:39:07;9.01;79.32
68578;SHT31;61668;45.388;11.784;2022-12-22T16:41:32;9.00;79.35
68578;SHT31;61668;45.388;11.784;2022-12-22T16:43:58;8.98;79.40
68578;SHT31;61668;45.388;11.784;2022-12-22T16:46:25;8.95;79.45
68578;SHT31;61668;45.388;11.784;2022-12-22T16:48:54;8.93;79.53
68578;SHT31;61668;45.388;11.784;2022-12-22T16:51:24;8.91;79.61
68578;SHT31;61668;45.388;11.784;2022-12-22T16:53:58;8.91;79.61
68578;SHT31;61668;45.388;11.784;2022-12-22T16:56:25;8.91;79.72
68578;SHT31;61668;45.388;11.784;2022-12-22T16:58:54;8.92;79.75
68578;SHT31;61668;45.388;11.784;2022-12-22T17:04:02;8.95;79.80
68578;SHT31;61668;45.388;11.784;2022-12-22T17:06:34;8.96;79.80
68578;SHT31;61668;45.388;11.784;2022-12-22T17:09:03;8.97;79.86
68578;SHT31;61668;45.388;11.784;2022-12-22T17:11:31;8.97;79.91
68578;SHT31;61668;45.388;11.784;2022-12-22T17:14:01;8.98;79.98
68578;SHT31;61668;45.388;11.784;2022-12-22T17:16:31;9.01;80.00
68578;SHT31;61668;45.388;11.784;2022-12-22T17:18:56;9.03;79.99
68578;SHT31;61668;45.388;11.784;2022-12-22T17:21:22;9.04;80.00
68578;SHT31;61668;45.388;11.784;2022-12-22T17:23:49;9.06;80.00
68578;SHT31;61668;45.388;11.784;2022-12-22T17:26:17;9.07;80.09
68578;SHT31;61668;45.388;11.784;2022-12-22T17:28:45;9.07;80.10
68578;SHT31;61668;45.388;11.784;2022-12-22T17:31:13;9.08;80.14
68578;SHT31;61668;45.388;11.784;2022-12-22T17:33:41;9.08;80.11
68578;SHT31;61668;45.388;11.784;2022-12-22T17:36:11;9.08;80.20
68578;SHT31;61668;45.388;11.784;2022-12-22T17:39:01;9.07;80.20
68578;SHT31;61668;45.388;11.784;2022-12-22T17:41:28;9.06;80.21
68578;SHT31;61668;45.388;11.784;2022-12-22T17:43:53;9.05;80.25
68578;SHT31;61668;45.388;11.784;2022-12-22T17:46:20;9.03;80.29
68578;SHT31;61668;45.388;11.784;2022-12-22T17:48:46;9.02;80.33
68578;SHT31;61668;45.388;11.784;2022-12-22T17:51:21;9.01;80.38
68578;SHT31;61668;45.388;11.784;2022-12-22T17:53:50;9.00;80.36
68578;SHT31;61668;45.388;11.784;2022-12-22T17:56:17;8.99;80.40
68578;SHT31;61668;45.388;11.784;2022-12-22T17:58:46;8.98;80.47
68578;SHT31;61668;45.388;11.784;2022-12-22T18:01:23;8.96;80.50
68578;SHT31;61668;45.388;11.784;2022-12-22T18:03:53;8.94;80.60
68578;SHT31;61668;45.388;11.784;2022-12-22T18:06:22;8.93;80.63
68578;SHT31;61668;45.388;11.784;2022-12-22T18:08:52;8.92;80.70
68578;SHT31;61668;45.388;11.784;2022-12-22T18:11:19;8.90;80.75
68578;SHT31;61668;45.388;11.784;2022-12-22T18:13:46;8.89;80.81
68578;SHT31;61668;45.388;11.784;2022-12-22T18:16:13;8.88;80.84
68578;SHT31;61668;45.388;11.784;2022-12-22T18:18:42;8.86;80.90
68578;SHT31;61668;45.388;11.784;2022-12-22T18:21:16;8.85;80.93
68578;SHT31;61668;45.388;11.784;2022-12-22T18:23:47;8.83;81.00
68578;SHT31;61668;45.388;11.784;2022-12-22T18:26:18;8.83;81.00
68578;SHT31;61668;45.388;11.784;2022-12-22T18:28:44;8.83;81.01
68578;SHT31;61668;45.388;11.784;2022-12-22T18:31:10;8.82;81.07
68578;SHT31;61668;45.388;11.784;2022-12-22T18:33:36;8.82;81.09